MiSS Monie — WCZ9166 — position and weather

sailwx.info

Track history (hours):
 
Tides and Currents Weather Stations Pressure Air Temp Water Temp Dewpoint Dewpoint Depression Visibility Wind Speed Wind Dir Waves Ship Positions

MiSS Monie

Owner: MISS MONIE TOWING LLC, HULL, TX. More information available from US FCC via Universal Licensing System and Coast Guard Vessel Documentation Center.

Last reported at 2017-Dec-11 02:01 UTC. Time now 2017-Dec-13 01:49 UTC.
Position N 29°46' W 095°06'.

Length 20 m.

Type: Ship. MMSI: 366962010.

Date/timePositionNaut miles runAvg speedWind from/ knotsBaromVisibWave heightAir tempDewpointWater temp
2017-Dec-11 02:01N 29°46' W 095°06'1 4.5
2017-Dec-11 01:53N 29°46' W 095°05'1 0.1
2017-Dec-10 22:23N 29°46' W 095°05'2 5.2
2017-Dec-10 22:00N 29°44' W 095°03'2 5.0
2017-Dec-10 21:30N 29°43' W 095°01'3 5.2
2017-Dec-10 20:58N 29°41' W 094°59'4 6.2
2017-Dec-10 20:17N 29°37' W 094°57'2 6.6
2017-Dec-10 20:00N 29°35' W 094°56'109 3.2
2017-Dec-09 10:17N 28°24' W 096°31'1 3.0
2017-Dec-09 09:59N 28°23' W 096°32'17 5.7
2017-Dec-09 06:55N 28°14' W 096°48'0 0.0
2017-Dec-09 06:30N 28°14' W 096°48'0 0.0
2017-Dec-09 05:52N 28°14' W 096°48'0 0.0
2017-Dec-09 05:28N 28°14' W 096°48'0 0.8
2017-Dec-09 04:59N 28°13' W 096°48'1 2.8
2017-Dec-09 04:30N 28°12' W 096°49'3 6.1
2017-Dec-09 03:59N 28°10' W 096°52'3 6.2
2017-Dec-09 03:30N 28°08' W 096°55'3 6.0
2017-Dec-09 02:59N 28°06' W 096°57'3 5.9
2017-Dec-09 02:29N 28°03' W 096°59'3 6.1
2017-Dec-09 02:00N 28°01' W 097°01'3 6.1
2017-Dec-09 01:30N 27°59' W 097°03'3 5.9
2017-Dec-09 01:00N 27°56' W 097°03'3 6.3
2017-Dec-09 00:30N 27°53' W 097°03'3 5.6
2017-Dec-08 23:59N 27°50' W 097°05'3 6.2
2017-Dec-08 23:29N 27°50' W 097°08'3 6.5
2017-Dec-08 23:00N 27°49' W 097°12'3 6.5
2017-Dec-08 22:28N 27°49' W 097°15'7 1.1
2017-Dec-08 15:37N 27°49' W 097°24'0 0.0
2017-Dec-08 15:23N 27°49' W 097°24'0 0.0
2017-Dec-08 14:38N 27°49' W 097°24'0 0.0
2017-Dec-08 14:30N 27°49' W 097°24'0 0.1
2017-Dec-08 13:48N 27°49' W 097°24'0 0.0
2017-Dec-08 13:30N 27°49' W 097°24'0 0.0
2017-Dec-08 04:32N 27°49' W 097°24'0 0.0
2017-Dec-08 04:29N 27°49' W 097°24'0 0.0
2017-Dec-08 03:51N 27°49' W 097°24'0 0.0
2017-Dec-08 03:17N 27°49' W 097°24'0 0.0
2017-Dec-08 02:59N 27°49' W 097°24'0 0.0
2017-Dec-08 00:33N 27°49' W 097°24'0 0.0
2017-Dec-08 00:29N 27°49' W 097°24'0 0.0
2017-Dec-07 23:57N 27°49' W 097°24'0 0.0
2017-Dec-07 23:29N 27°49' W 097°24'0 0.0
2017-Dec-07 20:03N 27°49' W 097°24'0 0.0
2017-Dec-07 19:54N 27°49' W 097°24'0 0.0
2017-Dec-07 19:19N 27°49' W 097°24'0 0.0
2017-Dec-07 15:26N 27°49' W 097°24'0 0.0
2017-Dec-07 14:59N 27°49' W 097°24'0 0.0
2017-Dec-07 14:21N 27°49' W 097°24'0 0.0
2017-Dec-07 13:58N 27°49' W 097°24'0 0.0
2017-Dec-07 13:20N 27°49' W 097°24'0 0.0
2017-Dec-07 13:00N 27°49' W 097°24'0 0.0
2017-Dec-07 12:20N 27°49' W 097°24'0 0.0
2017-Dec-07 12:00N 27°49' W 097°24'0 0.0
2017-Dec-07 11:29N 27°49' W 097°24'0 0.0
2017-Dec-07 11:00N 27°49' W 097°24'0 0.0
2017-Dec-07 10:30N 27°49' W 097°24'0 0.0
2017-Dec-07 09:59N 27°49' W 097°24'0 0.0
2017-Dec-07 09:29N 27°49' W 097°24'0 0.0
2017-Dec-07 09:00N 27°49' W 097°24'0 0.0
2017-Dec-07 08:30N 27°49' W 097°24'0 0.0
2017-Dec-07 08:00N 27°49' W 097°24'0 0.0
2017-Dec-07 07:30N 27°49' W 097°24'0 0.0
2017-Dec-07 06:59N 27°49' W 097°24'0 0.0
2017-Dec-07 06:25N 27°49' W 097°24'0 0.0
2017-Dec-07 05:59N 27°49' W 097°24'0 0.0
2017-Dec-07 05:30N 27°49' W 097°24'0 0.0
2017-Dec-07 04:52N 27°49' W 097°24'0 0.0
2017-Dec-07 04:30N 27°49' W 097°24'0 0.0
2017-Dec-07 04:00N 27°49' W 097°24'0 0.0
2017-Dec-07 03:30N 27°49' W 097°24'0 0.0
2017-Dec-07 02:59N 27°49' W 097°24'0 0.0
2017-Dec-07 02:30N 27°49' W 097°24'0 0.0
2017-Dec-07 01:59N 27°49' W 097°24'0 0.0
2017-Dec-07 01:30N 27°49' W 097°24'0 0.0
2017-Dec-07 01:00N 27°49' W 097°24'0 0.0
2017-Dec-07 00:28N 27°49' W 097°24'0 0.0
2017-Dec-06 23:54N 27°49' W 097°24'  
2017-Dec-04 10:30N 27°51' W 097°10'0 0.0
2017-Dec-04 10:00N 27°51' W 097°10'0 0.0
2017-Dec-04 09:29N 27°51' W 097°10'0 0.0
2017-Dec-04 08:59N 27°51' W 097°10'0 0.0
2017-Dec-04 08:29N 27°51' W 097°10'0 0.0
2017-Dec-04 07:58N 27°51' W 097°10'0 0.0
2017-Dec-04 07:30N 27°51' W 097°10'0 0.0
2017-Dec-04 06:59N 27°51' W 097°10'0 0.0
2017-Dec-04 06:29N 27°51' W 097°10'0 0.0
2017-Dec-04 06:00N 27°51' W 097°10'0 0.0
2017-Dec-04 05:29N 27°51' W 097°10'0 0.0
2017-Dec-04 04:59N 27°51' W 097°10'0 0.0
2017-Dec-04 04:30N 27°51' W 097°10'0 0.0
2017-Dec-04 04:00N 27°51' W 097°10'0 0.0
2017-Dec-04 03:30N 27°51' W 097°10'0 0.0
2017-Dec-04 02:59N 27°51' W 097°10'0 0.0
2017-Dec-04 02:30N 27°51' W 097°10'0 0.0
2017-Dec-04 02:00N 27°51' W 097°10'0 0.0
2017-Dec-04 01:29N 27°51' W 097°10'0 0.0
2017-Dec-04 01:00N 27°51' W 097°10'0 0.0
2017-Dec-04 00:30N 27°51' W 097°10'0 0.0
2017-Dec-03 23:59N 27°51' W 097°10'0 0.0
2017-Dec-03 23:29N 27°51' W 097°10'0 0.0
2017-Dec-03 23:00N 27°51' W 097°10'0 0.0
2017-Dec-03 22:29N 27°51' W 097°10'0 0.0
2017-Dec-03 21:59N 27°51' W 097°10'0 0.0
2017-Dec-03 21:30N 27°51' W 097°10'0 0.0
2017-Dec-03 20:59N 27°51' W 097°10'0 0.0
2017-Dec-03 20:29N 27°51' W 097°10'0 0.0
2017-Dec-03 20:00N 27°51' W 097°10'0 0.0
2017-Dec-03 19:30N 27°51' W 097°10'0 0.0
2017-Dec-03 19:00N 27°51' W 097°10'0 0.0
2017-Dec-03 16:35N 27°51' W 097°10'0 0.0
2017-Dec-03 16:27N 27°51' W 097°10'0 0.0
2017-Dec-03 15:47N 27°51' W 097°10'0 0.0
2017-Dec-03 15:30N 27°51' W 097°10'0 0.0
2017-Dec-03 14:59N 27°51' W 097°10'0 0.0
2017-Dec-03 11:15N 27°51' W 097°10'0 0.0
2017-Dec-03 11:00N 27°51' W 097°10'0 0.0
2017-Dec-03 10:29N 27°51' W 097°10'0 0.0
2017-Dec-03 10:00N 27°51' W 097°10'0 0.0
2017-Dec-03 09:29N 27°51' W 097°10'0 0.0
2017-Dec-03 08:59N 27°51' W 097°10'0 0.0
2017-Dec-03 08:29N 27°51' W 097°10'0 0.0
2017-Dec-03 08:00N 27°51' W 097°10'0 0.0
2017-Dec-03 07:30N 27°51' W 097°10'0 0.0
2017-Dec-03 06:59N 27°51' W 097°10'0 0.0
2017-Dec-03 06:30N 27°51' W 097°10'0 0.0
2017-Dec-03 05:59N 27°51' W 097°10'0 0.0
2017-Dec-03 05:09N 27°51' W 097°10'0 0.0
2017-Dec-03 04:48N 27°51' W 097°10'0 0.0
2017-Dec-03 04:23N 27°51' W 097°10'0 0.0
2017-Dec-03 03:59N 27°51' W 097°10'0 0.0
2017-Dec-03 03:29N 27°51' W 097°10'0 0.0
2017-Dec-03 02:59N 27°51' W 097°10'0 0.0
2017-Dec-03 02:30N 27°51' W 097°10'0 0.0
2017-Dec-03 02:00N 27°51' W 097°10'0 0.0
2017-Dec-03 01:30N 27°51' W 097°10'0 0.0
2017-Dec-03 00:59N 27°51' W 097°10'0 0.0
2017-Dec-03 00:29N 27°51' W 097°10'0 0.0
2017-Dec-03 00:00N 27°51' W 097°10'0 0.0
2017-Dec-02 23:30N 27°51' W 097°10'0 0.0
2017-Dec-02 22:59N 27°51' W 097°10'0 0.0
2017-Dec-02 22:30N 27°51' W 097°10'0 0.0
2017-Dec-02 22:00N 27°51' W 097°10'0 0.0
2017-Dec-02 21:30N 27°51' W 097°10'0 0.0
2017-Dec-02 21:00N 27°51' W 097°10'0 0.0
2017-Dec-02 20:30N 27°51' W 097°10'0 0.0
2017-Dec-02 20:00N 27°51' W 097°10'0 0.0
2017-Dec-02 19:30N 27°51' W 097°10'0 0.0
2017-Dec-02 19:00N 27°51' W 097°10'0 0.0
2017-Dec-02 18:29N 27°51' W 097°10'0 0.0
2017-Dec-02 17:59N 27°51' W 097°10'0 0.0
2017-Dec-02 17:30N 27°51' W 097°10'0 0.0
2017-Dec-02 17:00N 27°51' W 097°10'0 0.0
2017-Dec-02 16:29N 27°51' W 097°10'0 0.0
2017-Dec-02 15:58N 27°51' W 097°10'0 0.0
2017-Dec-02 15:30N 27°51' W 097°10'0 0.0
2017-Dec-02 14:59N 27°51' W 097°10'0 0.0
2017-Dec-02 14:29N 27°51' W 097°10'0 0.0
2017-Dec-02 14:00N 27°51' W 097°10'0 0.0
2017-Dec-02 13:30N 27°51' W 097°10'0 0.1
2017-Dec-02 13:00N 27°51' W 097°10'0 0.0
2017-Dec-02 12:29N 27°51' W 097°10'0 0.0
2017-Dec-02 12:00N 27°51' W 097°10'0 0.0
2017-Dec-02 11:30N 27°51' W 097°10'0 0.0
2017-Dec-02 11:00N 27°51' W 097°10'0 0.0
2017-Dec-02 10:29N 27°51' W 097°10'0 0.0
2017-Dec-02 09:59N 27°51' W 097°10'0 0.0
2017-Dec-02 09:30N 27°51' W 097°10'0 0.0
2017-Dec-02 08:59N 27°51' W 097°10'0 0.0
2017-Dec-02 08:30N 27°51' W 097°10'0 0.0
2017-Dec-02 08:00N 27°51' W 097°10'0 0.0
2017-Dec-02 07:29N 27°51' W 097°10'0 0.0
2017-Dec-02 07:00N 27°51' W 097°10'0 0.0
2017-Dec-02 06:30N 27°51' W 097°10'0 0.0
2017-Dec-02 05:59N 27°51' W 097°10'0 0.0
2017-Dec-02 05:30N 27°51' W 097°10'0 0.0
2017-Dec-02 05:00N 27°51' W 097°10'0 0.0
2017-Dec-02 04:29N 27°51' W 097°10'0 0.0
2017-Dec-02 03:46N 27°51' W 097°10'0 0.0
2017-Dec-02 03:21N 27°51' W 097°10'0 0.0
2017-Dec-02 02:39N 27°51' W 097°10'0 0.0
2017-Dec-02 02:19N 27°51' W 097°10'0 0.0
2017-Dec-02 02:00N 27°51' W 097°10'0 0.0
2017-Dec-02 01:29N 27°51' W 097°10'0 0.0
2017-Dec-02 01:00N 27°51' W 097°10'0 0.0
2017-Dec-02 00:30N 27°51' W 097°10'0 0.0
2017-Dec-01 23:59N 27°51' W 097°10'0 0.0
2017-Dec-01 23:29N 27°51' W 097°10'0 0.0
2017-Dec-01 23:00N 27°51' W 097°10'0 0.1
2017-Dec-01 22:30N 27°51' W 097°10'0 0.0
2017-Dec-01 21:59N 27°51' W 097°10'0 0.0
2017-Dec-01 21:30N 27°51' W 097°10'0 0.0
2017-Dec-01 20:59N 27°51' W 097°10'0 0.0
2017-Dec-01 20:30N 27°51' W 097°10'0 0.0
2017-Dec-01 20:00N 27°51' W 097°10'0 0.0
2017-Dec-01 19:28N 27°51' W 097°10'0 0.0
2017-Dec-01 18:56N 27°51' W 097°10'0 0.0
2017-Dec-01 18:30N 27°51' W 097°10'0 0.0
2017-Dec-01 17:59N 27°51' W 097°10'0 0.0
2017-Dec-01 17:29N 27°51' W 097°10'0 0.0
2017-Dec-01 17:00N 27°51' W 097°10'0 0.0
2017-Dec-01 16:30N 27°51' W 097°10'0 0.0
2017-Dec-01 16:00N 27°51' W 097°10'0 0.0
2017-Dec-01 15:29N 27°51' W 097°10'0 0.0
2017-Dec-01 14:59N 27°51' W 097°10'0 0.0
2017-Dec-01 14:29N 27°51' W 097°10'0 0.0
2017-Dec-01 13:56N 27°51' W 097°10'0 0.0
2017-Dec-01 13:30N 27°51' W 097°10'0 0.0
2017-Dec-01 13:00N 27°51' W 097°10'0 0.0
2017-Dec-01 11:58N 27°51' W 097°10'0 0.0
2017-Dec-01 11:29N 27°51' W 097°10'0 0.0
2017-Dec-01 11:00N 27°51' W 097°10'0 0.0
2017-Dec-01 10:29N 27°51' W 097°10'0 0.0
2017-Dec-01 10:00N 27°51' W 097°10'0 0.0
2017-Dec-01 09:29N 27°51' W 097°10'0 0.0
2017-Dec-01 09:00N 27°51' W 097°10'0 0.0
2017-Dec-01 08:29N 27°51' W 097°10'0 0.0
2017-Dec-01 08:00N 27°51' W 097°10'0 0.0
2017-Dec-01 07:29N 27°51' W 097°10'0 0.0
2017-Dec-01 07:00N 27°51' W 097°10'0 0.0
2017-Dec-01 06:29N 27°51' W 097°10'0 0.0
2017-Dec-01 05:59N 27°51' W 097°10'0 0.0
2017-Dec-01 05:30N 27°51' W 097°10'0 0.0
2017-Dec-01 04:59N 27°51' W 097°10'0 0.0
2017-Dec-01 04:30N 27°51' W 097°10'0 0.0
2017-Dec-01 03:33N 27°51' W 097°10'0 0.0
2017-Dec-01 03:29N 27°51' W 097°10'0 0.0
2017-Dec-01 03:00N 27°51' W 097°10'0 0.0
2017-Dec-01 02:04N 27°51' W 097°10'  
Track history (hours):
 
Tides and Currents Weather Stations Pressure Air Temp Water Temp Dewpoint Dewpoint Depression Visibility Wind Speed Wind Dir Waves Ship Positions

MiSS Monie

Owner: MISS MONIE TOWING LLC, HULL, TX. More information available from US FCC via Universal Licensing System and Coast Guard Vessel Documentation Center.

Last reported at 2017-Dec-11 02:01 UTC. Time now 2017-Dec-13 01:49 UTC.
Position N 29°46' W 095°06'.

Length 20 m.

Type: Ship. MMSI: 366962010.

Date/timePositionNaut miles runAvg speedWind from/ knotsBaromVisibWave heightAir tempDewpointWater temp
2017-Dec-11 02:01N 29°46' W 095°06'1 4.5
2017-Dec-11 01:53N 29°46' W 095°05'1 0.1
2017-Dec-10 22:23N 29°46' W 095°05'2 5.2
2017-Dec-10 22:00N 29°44' W 095°03'2 5.0
2017-Dec-10 21:30N 29°43' W 095°01'3 5.2
2017-Dec-10 20:58N 29°41' W 094°59'4 6.2
2017-Dec-10 20:17N 29°37' W 094°57'2 6.6
2017-Dec-10 20:00N 29°35' W 094°56'109 3.2
2017-Dec-09 10:17N 28°24' W 096°31'1 3.0
2017-Dec-09 09:59N 28°23' W 096°32'17 5.7
2017-Dec-09 06:55N 28°14' W 096°48'0 0.0
2017-Dec-09 06:30N 28°14' W 096°48'0 0.0
2017-Dec-09 05:52N 28°14' W 096°48'0 0.0
2017-Dec-09 05:28N 28°14' W 096°48'0 0.8
2017-Dec-09 04:59N 28°13' W 096°48'1 2.8
2017-Dec-09 04:30N 28°12' W 096°49'3 6.1
2017-Dec-09 03:59N 28°10' W 096°52'3 6.2
2017-Dec-09 03:30N 28°08' W 096°55'3 6.0
2017-Dec-09 02:59N 28°06' W 096°57'3 5.9
2017-Dec-09 02:29N 28°03' W 096°59'3 6.1
2017-Dec-09 02:00N 28°01' W 097°01'3 6.1
2017-Dec-09 01:30N 27°59' W 097°03'3 5.9
2017-Dec-09 01:00N 27°56' W 097°03'3 6.3
2017-Dec-09 00:30N 27°53' W 097°03'3 5.6
2017-Dec-08 23:59N 27°50' W 097°05'3 6.2
2017-Dec-08 23:29N 27°50' W 097°08'3 6.5
2017-Dec-08 23:00N 27°49' W 097°12'3 6.5
2017-Dec-08 22:28N 27°49' W 097°15'7 1.1
2017-Dec-08 15:37N 27°49' W 097°24'0 0.0
2017-Dec-08 15:23N 27°49' W 097°24'0 0.0
2017-Dec-08 14:38N 27°49' W 097°24'0 0.0
2017-Dec-08 14:30N 27°49' W 097°24'0 0.1
2017-Dec-08 13:48N 27°49' W 097°24'0 0.0
2017-Dec-08 13:30N 27°49' W 097°24'0 0.0
2017-Dec-08 04:32N 27°49' W 097°24'0 0.0
2017-Dec-08 04:29N 27°49' W 097°24'0 0.0
2017-Dec-08 03:51N 27°49' W 097°24'0 0.0
2017-Dec-08 03:17N 27°49' W 097°24'0 0.0
2017-Dec-08 02:59N 27°49' W 097°24'0 0.0
2017-Dec-08 00:33N 27°49' W 097°24'0 0.0
2017-Dec-08 00:29N 27°49' W 097°24'0 0.0
2017-Dec-07 23:57N 27°49' W 097°24'0 0.0
2017-Dec-07 23:29N 27°49' W 097°24'0 0.0
2017-Dec-07 20:03N 27°49' W 097°24'0 0.0
2017-Dec-07 19:54N 27°49' W 097°24'0 0.0
2017-Dec-07 19:19N 27°49' W 097°24'0 0.0
2017-Dec-07 15:26N 27°49' W 097°24'0 0.0
2017-Dec-07 14:59N 27°49' W 097°24'0 0.0
2017-Dec-07 14:21N 27°49' W 097°24'0 0.0
2017-Dec-07 13:58N 27°49' W 097°24'0 0.0
2017-Dec-07 13:20N 27°49' W 097°24'0 0.0
2017-Dec-07 13:00N 27°49' W 097°24'0 0.0
2017-Dec-07 12:20N 27°49' W 097°24'0 0.0
2017-Dec-07 12:00N 27°49' W 097°24'0 0.0
2017-Dec-07 11:29N 27°49' W 097°24'0 0.0
2017-Dec-07 11:00N 27°49' W 097°24'0 0.0
2017-Dec-07 10:30N 27°49' W 097°24'0 0.0
2017-Dec-07 09:59N 27°49' W 097°24'0 0.0
2017-Dec-07 09:29N 27°49' W 097°24'0 0.0
2017-Dec-07 09:00N 27°49' W 097°24'0 0.0
2017-Dec-07 08:30N 27°49' W 097°24'0 0.0
2017-Dec-07 08:00N 27°49' W 097°24'0 0.0
2017-Dec-07 07:30N 27°49' W 097°24'0 0.0
2017-Dec-07 06:59N 27°49' W 097°24'0 0.0
2017-Dec-07 06:25N 27°49' W 097°24'0 0.0
2017-Dec-07 05:59N 27°49' W 097°24'0 0.0
2017-Dec-07 05:30N 27°49' W 097°24'0 0.0
2017-Dec-07 04:52N 27°49' W 097°24'0 0.0
2017-Dec-07 04:30N 27°49' W 097°24'0 0.0
2017-Dec-07 04:00N 27°49' W 097°24'0 0.0
2017-Dec-07 03:30N 27°49' W 097°24'0 0.0
2017-Dec-07 02:59N 27°49' W 097°24'0 0.0
2017-Dec-07 02:30N 27°49' W 097°24'0 0.0
2017-Dec-07 01:59N 27°49' W 097°24'0 0.0
2017-Dec-07 01:30N 27°49' W 097°24'0 0.0
2017-Dec-07 01:00N 27°49' W 097°24'0 0.0
2017-Dec-07 00:28N 27°49' W 097°24'0 0.0
2017-Dec-06 23:54N 27°49' W 097°24'  
2017-Dec-04 10:30N 27°51' W 097°10'0 0.0
2017-Dec-04 10:00N 27°51' W 097°10'0 0.0
2017-Dec-04 09:29N 27°51' W 097°10'0 0.0
2017-Dec-04 08:59N 27°51' W 097°10'0 0.0
2017-Dec-04 08:29N 27°51' W 097°10'0 0.0
2017-Dec-04 07:58N 27°51' W 097°10'0 0.0
2017-Dec-04 07:30N 27°51' W 097°10'0 0.0
2017-Dec-04 06:59N 27°51' W 097°10'0 0.0
2017-Dec-04 06:29N 27°51' W 097°10'0 0.0
2017-Dec-04 06:00N 27°51' W 097°10'0 0.0
2017-Dec-04 05:29N 27°51' W 097°10'0 0.0
2017-Dec-04 04:59N 27°51' W 097°10'0 0.0
2017-Dec-04 04:30N 27°51' W 097°10'0 0.0
2017-Dec-04 04:00N 27°51' W 097°10'0 0.0
2017-Dec-04 03:30N 27°51' W 097°10'0 0.0
2017-Dec-04 02:59N 27°51' W 097°10'0 0.0
2017-Dec-04 02:30N 27°51' W 097°10'0 0.0
2017-Dec-04 02:00N 27°51' W 097°10'0 0.0
2017-Dec-04 01:29N 27°51' W 097°10'0 0.0
2017-Dec-04 01:00N 27°51' W 097°10'0 0.0
2017-Dec-04 00:30N 27°51' W 097°10'0 0.0
2017-Dec-03 23:59N 27°51' W 097°10'0 0.0
2017-Dec-03 23:29N 27°51' W 097°10'0 0.0
2017-Dec-03 23:00N 27°51' W 097°10'0 0.0
2017-Dec-03 22:29N 27°51' W 097°10'0 0.0
2017-Dec-03 21:59N 27°51' W 097°10'0 0.0
2017-Dec-03 21:30N 27°51' W 097°10'0 0.0
2017-Dec-03 20:59N 27°51' W 097°10'0 0.0
2017-Dec-03 20:29N 27°51' W 097°10'0 0.0
2017-Dec-03 20:00N 27°51' W 097°10'0 0.0
2017-Dec-03 19:30N 27°51' W 097°10'0 0.0
2017-Dec-03 19:00N 27°51' W 097°10'0 0.0
2017-Dec-03 16:35N 27°51' W 097°10'0 0.0
2017-Dec-03 16:27N 27°51' W 097°10'0 0.0
2017-Dec-03 15:47N 27°51' W 097°10'0 0.0
2017-Dec-03 15:30N 27°51' W 097°10'0 0.0
2017-Dec-03 14:59N 27°51' W 097°10'0 0.0
2017-Dec-03 11:15N 27°51' W 097°10'0 0.0
2017-Dec-03 11:00N 27°51' W 097°10'0 0.0
2017-Dec-03 10:29N 27°51' W 097°10'0 0.0
2017-Dec-03 10:00N 27°51' W 097°10'0 0.0
2017-Dec-03 09:29N 27°51' W 097°10'0 0.0
2017-Dec-03 08:59N 27°51' W 097°10'0 0.0
2017-Dec-03 08:29N 27°51' W 097°10'0 0.0
2017-Dec-03 08:00N 27°51' W 097°10'0 0.0
2017-Dec-03 07:30N 27°51' W 097°10'0 0.0
2017-Dec-03 06:59N 27°51' W 097°10'0 0.0
2017-Dec-03 06:30N 27°51' W 097°10'0 0.0
2017-Dec-03 05:59N 27°51' W 097°10'0 0.0
2017-Dec-03 05:09N 27°51' W 097°10'0 0.0
2017-Dec-03 04:48N 27°51' W 097°10'0 0.0
2017-Dec-03 04:23N 27°51' W 097°10'0 0.0
2017-Dec-03 03:59N 27°51' W 097°10'0 0.0
2017-Dec-03 03:29N 27°51' W 097°10'0 0.0
2017-Dec-03 02:59N 27°51' W 097°10'0 0.0
2017-Dec-03 02:30N 27°51' W 097°10'0 0.0
2017-Dec-03 02:00N 27°51' W 097°10'0 0.0
2017-Dec-03 01:30N 27°51' W 097°10'0 0.0
2017-Dec-03 00:59N 27°51' W 097°10'0 0.0
2017-Dec-03 00:29N 27°51' W 097°10'0 0.0
2017-Dec-03 00:00N 27°51' W 097°10'0 0.0
2017-Dec-02 23:30N 27°51' W 097°10'0 0.0
2017-Dec-02 22:59N 27°51' W 097°10'0 0.0
2017-Dec-02 22:30N 27°51' W 097°10'0 0.0
2017-Dec-02 22:00N 27°51' W 097°10'0 0.0
2017-Dec-02 21:30N 27°51' W 097°10'0 0.0
2017-Dec-02 21:00N 27°51' W 097°10'0 0.0
2017-Dec-02 20:30N 27°51' W 097°10'0 0.0
2017-Dec-02 20:00N 27°51' W 097°10'0 0.0
2017-Dec-02 19:30N 27°51' W 097°10'0 0.0
2017-Dec-02 19:00N 27°51' W 097°10'0 0.0
2017-Dec-02 18:29N 27°51' W 097°10'0 0.0
2017-Dec-02 17:59N 27°51' W 097°10'0 0.0
2017-Dec-02 17:30N 27°51' W 097°10'0 0.0
2017-Dec-02 17:00N 27°51' W 097°10'0 0.0
2017-Dec-02 16:29N 27°51' W 097°10'0 0.0
2017-Dec-02 15:58N 27°51' W 097°10'0 0.0
2017-Dec-02 15:30N 27°51' W 097°10'0 0.0
2017-Dec-02 14:59N 27°51' W 097°10'0 0.0
2017-Dec-02 14:29N 27°51' W 097°10'0 0.0
2017-Dec-02 14:00N 27°51' W 097°10'0 0.0
2017-Dec-02 13:30N 27°51' W 097°10'0 0.1
2017-Dec-02 13:00N 27°51' W 097°10'0 0.0
2017-Dec-02 12:29N 27°51' W 097°10'0 0.0
2017-Dec-02 12:00N 27°51' W 097°10'0 0.0
2017-Dec-02 11:30N 27°51' W 097°10'0 0.0
2017-Dec-02 11:00N 27°51' W 097°10'0 0.0
2017-Dec-02 10:29N 27°51' W 097°10'0 0.0
2017-Dec-02 09:59N 27°51' W 097°10'0 0.0
2017-Dec-02 09:30N 27°51' W 097°10'0 0.0
2017-Dec-02 08:59N 27°51' W 097°10'0 0.0
2017-Dec-02 08:30N 27°51' W 097°10'0 0.0
2017-Dec-02 08:00N 27°51' W 097°10'0 0.0
2017-Dec-02 07:29N 27°51' W 097°10'0 0.0
2017-Dec-02 07:00N 27°51' W 097°10'0 0.0
2017-Dec-02 06:30N 27°51' W 097°10'0 0.0
2017-Dec-02 05:59N 27°51' W 097°10'0 0.0
2017-Dec-02 05:30N 27°51' W 097°10'0 0.0
2017-Dec-02 05:00N 27°51' W 097°10'0 0.0
2017-Dec-02 04:29N 27°51' W 097°10'0 0.0
2017-Dec-02 03:46N 27°51' W 097°10'0 0.0
2017-Dec-02 03:21N 27°51' W 097°10'0 0.0
2017-Dec-02 02:39N 27°51' W 097°10'0 0.0
2017-Dec-02 02:19N 27°51' W 097°10'0 0.0
2017-Dec-02 02:00N 27°51' W 097°10'0 0.0
2017-Dec-02 01:29N 27°51' W 097°10'0 0.0
2017-Dec-02 01:00N 27°51' W 097°10'0 0.0
2017-Dec-02 00:30N 27°51' W 097°10'0 0.0
2017-Dec-01 23:59N 27°51' W 097°10'0 0.0
2017-Dec-01 23:29N 27°51' W 097°10'0 0.0
2017-Dec-01 23:00N 27°51' W 097°10'0 0.1
2017-Dec-01 22:30N 27°51' W 097°10'0 0.0
2017-Dec-01 21:59N 27°51' W 097°10'0 0.0
2017-Dec-01 21:30N 27°51' W 097°10'0 0.0
2017-Dec-01 20:59N 27°51' W 097°10'0 0.0
2017-Dec-01 20:30N 27°51' W 097°10'0 0.0
2017-Dec-01 20:00N 27°51' W 097°10'0 0.0
2017-Dec-01 19:28N 27°51' W 097°10'0 0.0
2017-Dec-01 18:56N 27°51' W 097°10'0 0.0
2017-Dec-01 18:30N 27°51' W 097°10'0 0.0
2017-Dec-01 17:59N 27°51' W 097°10'0 0.0
2017-Dec-01 17:29N 27°51' W 097°10'0 0.0
2017-Dec-01 17:00N 27°51' W 097°10'0 0.0
2017-Dec-01 16:30N 27°51' W 097°10'0 0.0
2017-Dec-01 16:00N 27°51' W 097°10'0 0.0
2017-Dec-01 15:29N 27°51' W 097°10'0 0.0
2017-Dec-01 14:59N 27°51' W 097°10'0 0.0
2017-Dec-01 14:29N 27°51' W 097°10'0 0.0
2017-Dec-01 13:56N 27°51' W 097°10'0 0.0
2017-Dec-01 13:30N 27°51' W 097°10'0 0.0
2017-Dec-01 13:00N 27°51' W 097°10'0 0.0
2017-Dec-01 11:58N 27°51' W 097°10'0 0.0
2017-Dec-01 11:29N 27°51' W 097°10'0 0.0
2017-Dec-01 11:00N 27°51' W 097°10'0 0.0
2017-Dec-01 10:29N 27°51' W 097°10'0 0.0
2017-Dec-01 10:00N 27°51' W 097°10'0 0.0
2017-Dec-01 09:29N 27°51' W 097°10'0 0.0
2017-Dec-01 09:00N 27°51' W 097°10'0 0.0
2017-Dec-01 08:29N 27°51' W 097°10'0 0.0
2017-Dec-01 08:00N 27°51' W 097°10'0 0.0
2017-Dec-01 07:29N 27°51' W 097°10'0 0.0
2017-Dec-01 07:00N 27°51' W 097°10'0 0.0
2017-Dec-01 06:29N 27°51' W 097°10'0 0.0
2017-Dec-01 05:59N 27°51' W 097°10'0 0.0
2017-Dec-01 05:30N 27°51' W 097°10'0 0.0
2017-Dec-01 04:59N 27°51' W 097°10'0 0.0
2017-Dec-01 04:30N 27°51' W 097°10'0 0.0
2017-Dec-01 03:33N 27°51' W 097°10'0 0.0
2017-Dec-01 03:29N 27°51' W 097°10'0 0.0
2017-Dec-01 03:00N 27°51' W 097°10'0 0.0
2017-Dec-01 02:04N 27°51' W 097°10'  

Dump ship's entire track history